Lafleche, Canada
Current Conditions -  °F | °C
As of 4:14 PM on Wednesday 28 Jan 2015 (Local Time) from CYMJ Reporting Station
Overcast Overcast  
Wind Chill: 20°   Ceiling: 800
Heat Index: 32°   Visibility: 8mi
Dew Point: 28°   Wind: 18mph
Humidity: 87%   Direction: 320°NW
Pressure: 30.16"   Gusts: 29mph
Location:  49.7°N, 106.57°W
Report Text: CYMJ 282214Z 32016G25KT 8SM OVC008 M00/M02 A3016 RMK SF8 LAST OBS/NEXT 291100 UTC SLP242
Loading
Personal Weather Stations






























Interactive Weather Map New forecast layout! Learn more

10-Day Weather Forecast

Advertisements
Track Severe Weather on mobile